Time;durP1;ratioP1;P1;durP2;ratioP2;P2;SDS_P1;SDS_P2;PMS_P1;PMS_P2;Temp;Humidity;BMP_temperature;BMP_pressure;BME280_temperature;BME280_humidity;BME280_pressure;Samples;Min_cycle;Max_cycle;Signal;HPM_P1;HPM_P2
2022/08/23 00:00:08;;;;;;;4.30;2.90;;;;;;;18.04;100.00;96270.97;5019261;28;20089;-56
2022/08/23 00:02:41;;;;;;;4.40;3.40;;;;;;;17.85;100.00;96277.78;5054417;28;20069;-54
2022/08/23 00:05:11;;;;;;;5.57;3.25;;;;;;;17.89;100.00;96283.56;5015752;28;20089;-53
2022/08/23 00:07:42;;;;;;;3.30;2.60;;;;;;;18.28;100.00;96277.66;5020730;28;20469;-56
2022/08/23 00:10:14;;;;;;;4.57;3.10;;;;;;;18.21;100.00;96276.81;5015239;28;20084;-52
2022/08/23 00:12:44;;;;;;;3.05;2.53;;;;;;;18.11;100.00;96269.16;5025276;28;20073;-57
2022/08/23 00:15:15;;;;;;;4.05;2.85;;;;;;;18.03;100.00;96272.81;5028776;28;20076;-57
2022/08/23 00:17:44;;;;;;;4.10;2.67;;;;;;;18.13;100.00;96272.44;5022689;28;20070;-54
2022/08/23 00:20:15;;;;;;;4.35;2.70;;;;;;;18.18;100.00;96275.34;5019386;28;20073;-52
2022/08/23 00:22:46;;;;;;;4.03;2.65;;;;;;;18.05;100.00;96269.09;5019901;28;20069;-53
2022/08/23 00:25:15;;;;;;;3.53;2.63;;;;;;;18.20;100.00;96276.00;5025410;28;20065;-54
2022/08/23 00:27:43;;;;;;;3.47;2.60;;;;;;;18.02;100.00;96279.16;5022479;28;20567;-53
2022/08/23 00:30:13;;;;;;;2.63;2.30;;;;;;;18.13;100.00;96283.09;5023587;28;20066;-53
2022/08/23 00:32:42;;;;;;;3.88;2.70;;;;;;;17.98;100.00;96282.41;5021130;28;20107;-56
2022/08/23 00:35:13;;;;;;;3.88;2.50;;;;;;;17.98;100.00;96287.75;5027153;28;20084;-56
2022/08/23 00:37:57;;;;;;;5.65;2.85;;;;;;;18.21;100.00;96277.63;5022586;28;20095;-57
2022/08/23 00:40:47;;;;;;;4.75;3.00;;;;;;;18.32;100.00;96275.44;5023500;28;20079;-52
2022/08/23 00:49:13;;;;;;;7.50;3.10;;;;;;;18.02;100.00;96278.31;5008346;28;20069;-53
2022/08/23 00:51:47;;;;;;;3.47;2.90;;;;;;;17.87;100.00;96282.97;5024000;28;20495;-53
2022/08/23 00:54:23;;;;;;;3.60;2.80;;;;;;;18.02;100.00;96279.16;5028006;28;20447;-51
2022/08/23 00:56:52;;;;;;;4.80;2.72;;;;;;;18.14;100.00;96276.78;5027919;28;20057;-54
2022/08/23 00:59:21;;;;;;;4.68;2.85;;;;;;;18.00;100.00;96267.84;5022621;28;20124;-55
2022/08/23 01:01:50;;;;;;;2.60;2.40;;;;;;;17.97;100.00;96278.09;5023373;28;20069;-57
2022/08/23 01:04:18;;;;;;;6.35;2.88;;;;;;;18.02;100.00;96273.81;5027891;28;20076;-57
2022/08/23 01:06:52;;;;;;;5.55;2.90;;;;;;;17.95;100.00;96278.28;5022124;28;20086;-54
2022/08/23 01:09:22;;;;;;;3.97;2.90;;;;;;;17.94;100.00;96275.81;5025151;28;20160;-56
2022/08/23 01:11:54;;;;;;;6.70;2.33;;;;;;;17.61;100.00;96276.34;5022893;28;20081;-54
2022/08/23 01:14:26;;;;;;;4.95;2.70;;;;;;;17.53;100.00;96279.16;5026318;28;20061;-55
2022/08/23 01:16:58;;;;;;;5.45;3.10;;;;;;;17.58;100.00;96279.41;5025526;28;20061;-51
2022/08/23 01:19:33;;;;;;;4.35;3.28;;;;;;;17.71;100.00;96279.50;5023751;28;20081;-55
2022/08/23 01:22:08;;;;;;;3.72;3.08;;;;;;;17.64;100.00;96283.16;5024606;28;20065;-50
2022/08/23 01:24:38;;;;;;;3.75;2.78;;;;;;;17.39;100.00;96286.22;5026901;28;20085;-51
2022/08/23 01:27:26;;;;;;;4.13;2.85;;;;;;;17.51;100.00;96283.84;5018661;28;20089;-56
2022/08/23 01:29:55;;;;;;;3.33;2.80;;;;;;;17.52;100.00;96283.69;5027576;28;20065;-58
2022/08/23 01:32:24;;;;;;;5.30;2.92;;;;;;;17.46;100.00;96287.13;5025507;28;20081;-58
2022/08/23 01:34:53;;;;;;;4.85;3.00;;;;;;;17.26;100.00;96286.09;5027415;28;20076;-56
2022/08/23 01:37:21;;;;;;;5.82;3.10;;;;;;;17.65;100.00;96284.78;5025597;28;20100;-55
2022/08/23 01:39:51;;;;;;;4.22;2.88;;;;;;;17.65;100.00;96280.31;5023930;28;20061;-56
2022/08/23 01:42:20;;;;;;;4.80;2.58;;;;;;;17.57;100.00;96280.44;5024838;28;20531;-54
2022/08/23 01:44:48;;;;;;;5.35;2.85;;;;;;;17.53;100.00;96280.00;5029612;28;20073;-56
2022/08/23 01:47:17;;;;;;;4.38;2.70;;;;;;;17.49;100.00;96292.06;5028790;28;20124;-55
2022/08/23 01:49:45;;;;;;;4.45;2.85;;;;;;;17.20;100.00;96290.34;5028841;28;20065;-52
2022/08/23 01:52:14;;;;;;;3.85;3.10;;;;;;;17.36;100.00;96285.78;5029362;28;20077;-54
2022/08/23 01:54:42;;;;;;;4.20;3.00;;;;;;;17.29;100.00;96291.88;5029326;28;20092;-51
2022/08/23 01:57:12;;;;;;;3.63;2.63;;;;;;;17.41;100.00;96289.53;5029659;28;20105;-57
2022/08/23 01:59:42;;;;;;;3.30;2.73;;;;;;;17.40;100.00;96300.38;5028806;28;20445;-56
2022/08/23 02:02:11;;;;;;;6.60;3.20;;;;;;;17.26;100.00;96302.91;5025127;28;20625;-55
2022/08/23 02:04:39;;;;;;;3.03;2.60;;;;;;;17.41;100.00;96297.53;5028582;28;20038;-53
2022/08/23 02:07:08;;;;;;;4.00;2.55;;;;;;;17.34;100.00;96293.97;5029584;28;20080;-55
2022/08/23 02:09:36;;;;;;;5.93;2.67;;;;;;;17.42;100.00;96293.03;5027462;28;20165;-49
2022/08/23 02:12:05;;;;;;;4.85;2.47;;;;;;;17.37;100.00;96284.75;5029149;28;20085;-54
2022/08/23 02:14:40;;;;;;;3.90;2.78;;;;;;;17.42;100.00;96287.69;5029615;28;20057;-50
2022/08/23 02:17:09;;;;;;;3.78;2.60;;;;;;;17.30;100.00;96288.19;5026214;28;20091;-54
2022/08/23 02:19:39;;;;;;;3.53;2.90;;;;;;;17.34;100.00;96293.97;5028574;28;20104;-56
2022/08/23 02:22:08;;;;;;;5.85;2.90;;;;;;;17.39;100.00;96293.41;5028545;28;20081;-57
2022/08/23 02:24:40;;;;;;;4.85;2.80;;;;;;;17.09;100.00;96293.53;5029366;28;20077;-55
2022/08/23 02:27:09;;;;;;;4.55;2.90;;;;;;;16.55;100.00;96299.22;5029500;28;20116;-57
2022/08/23 02:29:38;;;;;;;7.07;3.50;;;;;;;16.40;100.00;96309.06;5027529;28;20065;-55
2022/08/23 02:32:08;;;;;;;3.85;3.22;;;;;;;16.95;100.00;96305.06;5027211;28;20069;-54
2022/08/23 02:34:37;;;;;;;5.68;3.20;;;;;;;16.65;100.00;96304.25;5029376;28;20077;-56
2022/08/23 02:37:06;;;;;;;4.25;3.38;;;;;;;17.03;100.00;96302.25;5025924;28;20506;-55
2022/08/23 02:39:35;;;;;;;4.75;2.88;;;;;;;17.02;100.00;96304.09;5024795;28;20064;-55
2022/08/23 02:42:06;;;;;;;7.78;3.00;;;;;;;16.71;100.00;96308.84;5028504;28;20089;-57
2022/08/23 02:44:36;;;;;;;7.10;2.95;;;;;;;16.85;100.00;96306.16;5026967;28;20433;-55
2022/08/23 02:47:07;;;;;;;6.18;2.92;;;;;;;16.91;100.00;96312.59;5024700;28;20072;-54
2022/08/23 02:49:36;;;;;;;5.90;3.22;;;;;;;16.83;100.00;96312.72;5028685;28;20463;-53
2022/08/23 02:52:06;;;;;;;4.72;2.90;;;;;;;16.94;100.00;96314.06;5022423;28;20069;-52
2022/08/23 02:54:35;;;;;;;3.67;2.73;;;;;;;16.97;100.00;96309.19;5024873;28;20069;-56
2022/08/23 02:57:04;;;;;;;3.80;3.00;;;;;;;16.58;100.00;96312.97;5026087;28;20524;-56
2022/08/23 02:59:32;;;;;;;3.72;3.25;;;;;;;16.56;100.00;96323.00;5027446;28;20065;-52
2022/08/23 03:02:01;;;;;;;5.75;3.13;;;;;;;16.81;100.00;96328.03;5028273;28;20091;-56
2022/08/23 03:04:31;;;;;;;4.32;3.13;;;;;;;16.55;100.00;96326.69;5028419;28;20081;-55
2022/08/23 03:06:59;;;;;;;3.90;3.10;;;;;;;16.73;100.00;96318.31;5022376;28;20080;-58
2022/08/23 03:09:28;;;;;;;3.88;2.90;;;;;;;16.50;100.00;96329.06;5024125;28;20077;-50
2022/08/23 03:11:56;;;;;;;4.03;3.20;;;;;;;16.04;100.00;96328.44;5021128;28;20277;-54
2022/08/23 03:14:26;;;;;;;5.75;3.40;;;;;;;16.02;100.00;96336.56;5023194;28;20081;-56
2022/08/23 03:16:55;;;;;;;5.40;3.35;;;;;;;16.25;100.00;96325.03;5021280;28;20064;-51
2022/08/23 03:19:25;;;;;;;3.92;3.33;;;;;;;16.13;100.00;96328.13;5023405;28;20088;-52
2022/08/23 03:21:55;;;;;;;4.65;3.58;;;;;;;15.80;100.00;96330.31;5018636;28;20061;-54
2022/08/23 03:24:23;;;;;;;7.50;4.63;;;;;;;16.11;100.00;96324.84;5024427;28;20071;-56
2022/08/23 03:26:52;;;;;;;4.72;3.72;;;;;;;16.19;100.00;96334.56;5019308;28;20503;-52
2022/08/23 03:29:20;;;;;;;4.50;4.00;;;;;;;15.82;100.00;96330.94;5018952;28;20093;-55
2022/08/23 03:31:50;;;;;;;8.07;4.03;;;;;;;15.90;100.00;96335.38;5021262;28;20096;-55
2022/08/23 03:34:21;;;;;;;5.68;4.43;;;;;;;16.11;100.00;96335.50;5019651;28;20074;-52
2022/08/23 03:36:49;;;;;;;5.45;4.25;;;;;;;16.10;100.00;96346.31;5023516;28;20067;-54
2022/08/23 03:39:19;;;;;;;7.32;4.15;;;;;;;15.94;100.00;96354.47;5021427;28;20515;-55
2022/08/23 03:41:47;;;;;;;6.90;4.50;;;;;;;16.11;100.00;96348.78;5020364;28;20500;-56
2022/08/23 03:44:16;;;;;;;5.00;4.30;;;;;;;16.18;100.00;96354.22;5027447;28;20081;-58
2022/08/23 03:46:44;;;;;;;6.93;5.40;;;;;;;16.02;100.00;96355.19;5025154;28;20057;-58
2022/08/23 03:49:13;;;;;;;6.95;4.85;;;;;;;15.87;100.00;96357.84;5022892;28;20081;-53
2022/08/23 03:51:41;;;;;;;6.47;5.07;;;;;;;16.20;100.00;96357.50;5026642;28;20085;-53
2022/08/23 03:54:09;;;;;;;7.68;5.20;;;;;;;16.18;100.00;96354.22;5027261;28;20293;-55
2022/08/23 03:56:51;;;;;;;9.73;5.40;;;;;;;16.33;100.00;96349.72;5027170;28;20077;-55
2022/08/23 03:59:20;;;;;;;6.75;4.70;;;;;;;16.08;100.00;96361.63;5022909;28;20100;-56
2022/08/23 04:01:48;;;;;;;5.78;4.63;;;;;;;15.89;100.00;96369.09;5025332;28;20065;-55
2022/08/23 04:04:16;;;;;;;8.65;5.28;;;;;;;16.21;100.00;96356.50;5027879;28;20092;-52
2022/08/23 04:06:45;;;;;;;5.35;4.25;;;;;;;16.17;100.00;96370.34;5028451;28;20061;-54
2022/08/23 04:09:15;;;;;;;6.63;4.65;;;;;;;16.16;100.00;96371.34;5023992;28;20064;-58
2022/08/23 04:11:44;;;;;;;5.80;4.72;;;;;;;16.12;100.00;96374.38;5017739;28;20220;-53
2022/08/23 04:14:13;;;;;;;5.30;4.47;;;;;;;15.92;100.00;96375.91;5024389;28;20088;-56
2022/08/23 04:16:43;;;;;;;5.30;4.40;;;;;;;15.98;100.00;96372.53;5019168;28;20523;-56
2022/08/23 04:19:13;;;;;;;5.45;4.05;;;;;;;16.05;100.00;96370.78;5013890;28;20092;-52
2022/08/23 04:21:44;;;;;;;6.93;4.10;;;;;;;15.91;100.00;96379.56;5015850;28;20435;-52
2022/08/23 04:24:13;;;;;;;6.45;4.53;;;;;;;16.01;100.00;96384.66;5018665;28;20073;-58
2022/08/23 04:26:42;;;;;;;7.10;3.78;;;;;;;16.09;100.00;96382.72;5015791;28;20073;-56
2022/08/23 04:29:15;;;;;;;6.70;4.25;;;;;;;16.19;100.00;96385.13;5012013;28;20069;-56
2022/08/23 04:32:02;;;;;;;6.60;3.80;;;;;;;16.10;100.00;96387.06;5015494;28;20455;-56
2022/08/23 04:34:35;;;;;;;6.88;3.80;;;;;;;16.06;100.00;96387.56;5021121;28;20443;-57
2022/08/23 04:37:04;;;;;;;6.28;3.97;;;;;;;16.46;100.00;96388.19;5020266;28;20085;-56
2022/08/23 04:42:16;;;;;;;5.10;3.58;;;;;;;16.13;100.00;96385.84;5013315;28;20099;-56
2022/08/23 04:42:25;;;;;;;4.25;3.80;;;;;;;16.14;100.00;96392.84;5021512;28;20085;-57
2022/08/23 04:44:56;;;;;;;5.88;4.07;;;;;;;15.86;100.00;96397.88;5014429;28;20065;-55
2022/08/23 04:47:24;;;;;;;7.10;4.28;;;;;;;16.12;100.00;96400.97;5018779;28;20072;-58
2022/08/23 04:49:53;;;;;;;6.63;3.80;;;;;;;16.30;100.00;96405.97;5013873;28;20077;-59
2022/08/23 04:52:21;;;;;;;7.70;3.65;;;;;;;16.45;100.00;96405.16;5023883;28;20092;-58
2022/08/23 04:54:49;;;;;;;6.97;3.97;;;;;;;16.47;100.00;96398.63;5015683;28;20083;-58
2022/08/23 04:57:18;;;;;;;7.13;4.03;;;;;;;16.48;100.00;96402.97;5021031;28;20088;-54
2022/08/23 04:59:46;;;;;;;5.38;4.20;;;;;;;16.74;100.00;96397.19;5014594;28;20092;-54
2022/08/23 05:02:16;;;;;;;7.45;5.38;;;;;;;17.47;100.00;96391.91;5016072;28;20096;-56
2022/08/23 05:04:44;;;;;;;5.80;5.30;;;;;;;18.05;100.00;96392.69;5017153;28;20073;-57
2022/08/23 05:07:14;;;;;;;10.25;4.80;;;;;;;19.09;100.00;96390.03;5017719;28;20084;-55
2022/08/23 05:09:42;;;;;;;5.65;4.30;;;;;;;19.75;100.00;96394.81;5016591;28;20085;-57
2022/08/23 05:12:10;;;;;;;6.75;3.85;;;;;;;20.28;100.00;96388.63;5019297;28;20099;-56
2022/08/23 05:14:39;;;;;;;5.43;3.10;;;;;;;20.41;100.00;96399.34;5019595;28;20089;-57
2022/08/23 05:17:11;;;;;;;3.75;3.08;;;;;;;20.44;100.00;96400.75;5013832;28;20359;-51
2022/08/23 05:19:42;;;;;;;4.15;3.17;;;;;;;20.92;100.00;96395.13;5019307;28;20535;-59
2022/08/23 05:22:14;;;;;;;5.85;3.40;;;;;;;20.61;100.00;96400.16;5016282;28;20456;-51
2022/08/23 05:24:42;;;;;;;3.72;2.80;;;;;;;20.11;100.00;96396.25;5018413;28;20409;-53
2022/08/23 05:27:11;;;;;;;4.97;2.75;;;;;;;21.47;100.00;96393.69;5016127;28;20487;-53
2022/08/23 05:29:41;;;;;;;4.68;2.70;;;;;;;20.68;100.00;96408.19;5026004;28;20873;-54
2022/08/23 05:32:09;;;;;;;5.60;2.95;;;;;;;19.74;100.00;96411.84;5021752;28;20079;-54
2022/08/23 05:34:38;;;;;;;6.32;3.25;;;;;;;18.84;100.00;96411.09;5026319;28;20437;-54
2022/08/23 05:37:07;;;;;;;4.57;3.10;;;;;;;19.15;100.00;96413.31;5021877;28;20088;-60
2022/08/23 05:39:36;;;;;;;5.47;3.47;;;;;;;19.67;100.00;96411.03;5018185;28;20065;-54
2022/08/23 05:42:05;;;;;;;5.47;3.70;;;;;;;19.18;100.00;96417.44;5020399;28;20061;-55
2022/08/23 05:44:33;;;;;;;7.75;3.78;;;;;;;19.30;100.00;96410.47;5021730;28;20081;-55
2022/08/23 05:47:05;;;;;;;5.45;3.50;;;;;;;19.06;100.00;96411.00;5019839;28;20069;-55
2022/08/23 05:49:38;;;;;;;5.13;3.63;;;;;;;18.74;100.00;96419.47;5018617;28;20520;-56
2022/08/23 05:52:11;;;;;;;7.88;4.10;;;;;;;18.78;100.00;96422.56;5016965;28;20115;-53
2022/08/23 05:54:40;;;;;;;5.72;3.95;;;;;;;19.39;100.00;96424.50;5019610;28;20080;-57
2022/08/23 05:57:10;;;;;;;6.00;4.20;;;;;;;19.58;100.00;96417.56;5020347;28;20524;-54
2022/08/23 05:59:40;;;;;;;5.67;4.67;;;;;;;19.31;100.00;96428.19;5012954;28;20068;-52
2022/08/23 06:02:09;;;;;;;6.50;5.10;;;;;;;19.80;100.00;96428.97;5014868;28;20184;-55
2022/08/23 06:04:37;;;;;;;6.50;4.60;;;;;;;19.49;100.00;96429.47;5028360;28;20080;-56
2022/08/23 06:07:06;;;;;;;6.60;4.82;;;;;;;19.95;100.00;96436.81;5029856;28;20103;-57
2022/08/23 06:09:35;;;;;;;6.05;5.28;;;;;;;20.15;100.00;96432.28;5030708;28;20630;-55
2022/08/23 06:12:04;;;;;;;9.15;4.75;;;;;;;19.68;100.00;96434.91;5029952;28;20080;-53
2022/08/23 06:14:32;;;;;;;8.77;5.38;;;;;;;20.01;100.00;96434.13;5028613;28;20096;-58
2022/08/23 06:17:01;;;;;;;7.43;5.63;;;;;;;20.05;100.00;96431.88;5029954;28;20089;-52
2022/08/23 06:19:29;;;;;;;8.68;5.22;;;;;;;20.48;100.00;96434.97;5030764;28;20088;-56
2022/08/23 06:21:58;;;;;;;7.00;4.97;;;;;;;20.70;100.00;96435.59;5030223;28;20096;-52
2022/08/23 06:24:26;;;;;;;5.80;5.18;;;;;;;20.89;100.00;96431.22;5030740;28;20081;-57
2022/08/23 06:26:56;;;;;;;6.22;4.95;;;;;;;20.95;100.00;96440.28;5030613;28;20081;-56
2022/08/23 06:29:24;;;;;;;7.33;4.73;;;;;;;21.10;100.00;96436.31;5027068;28;20088;-54
2022/08/23 06:31:53;;;;;;;7.20;4.68;;;;;;;21.06;100.00;96436.97;5030359;28;20511;-55
2022/08/23 06:34:23;;;;;;;7.45;5.07;;;;;;;21.07;100.00;96435.91;5030984;28;20096;-54
2022/08/23 06:36:53;;;;;;;6.47;4.85;;;;;;;20.83;100.00;96440.09;5018042;28;20076;-54
2022/08/23 06:39:22;;;;;;;;;;;;;;;;;;5023223;28;20081;-58
2022/08/23 06:41:50;;;;;;;6.93;4.78;;;;;;;20.46;100.00;96441.56;5030052;28;19964;-55
2022/08/23 06:44:21;;;;;;;11.10;5.85;;;;;;;20.97;100.00;96436.34;5029798;28;20503;-52
2022/08/23 06:46:49;;;;;;;;;;;;;;;21.31;100.00;96429.03;5031177;28;20084;-54
2022/08/23 06:49:17;;;;;;;10.45;5.65;;;;;;;21.30;100.00;96433.56;5030094;28;20008;-54
2022/08/23 06:51:50;;;;;;;9.55;5.82;;;;;;;21.52;100.00;96442.16;5029743;28;20088;-58
2022/08/23 06:54:21;;;;;;;7.70;5.60;;;;;;;21.95;100.00;96433.44;5029562;28;20089;-54
2022/08/23 06:56:53;;;;;;;8.48;5.30;;;;;;;21.69;100.00;96437.13;5029228;28;20073;-57
2022/08/23 06:59:24;;;;;;;9.80;5.82;;;;;;;21.59;100.00;96438.63;5029878;28;20100;-58
2022/08/23 07:01:54;;;;;;;7.20;5.53;;;;;;;22.37;100.00;96446.41;5028996;28;20088;-52
2022/08/23 07:04:24;;;;;;;14.40;5.72;;;;;;;22.55;100.00;96446.44;5030049;28;20092;-51
2022/08/23 07:06:52;;;;;;;7.18;5.18;;;;;;;22.60;100.00;96451.97;5029701;28;20087;-49
2022/08/23 07:09:21;;;;;;;7.38;5.50;;;;;;;22.39;100.00;96444.31;5029606;28;20092;-56
2022/08/23 07:11:50;;;;;;;7.63;5.38;;;;;;;22.95;100.00;96448.75;5029344;28;20084;-55
2022/08/23 07:14:19;;;;;;;9.70;5.47;;;;;;;23.16;100.00;96456.41;5029791;28;20077;-54
2022/08/23 07:16:51;;;;;;;7.38;5.60;;;;;;;22.78;100.00;96450.34;5029627;28;20168;-55
2022/08/23 07:19:22;;;;;;;8.65;4.97;;;;;;;23.05;100.00;96446.38;5029853;28;20092;-55
2022/08/23 07:21:57;;;;;;;8.10;5.55;;;;;;;22.80;100.00;96454.47;5028912;28;20081;-53
2022/08/23 07:24:25;;;;;;;10.18;5.78;;;;;;;23.06;100.00;96455.28;5025828;28;20543;-51
2022/08/23 07:27:02;;;;;;;11.38;5.43;;;;;;;22.86;100.00;96458.97;5029511;28;20535;-58
2022/08/23 07:29:31;;;;;;;8.77;5.40;;;;;;;23.79;100.00;96463.31;5029140;28;20088;-55
2022/08/23 07:32:01;;;;;;;6.80;4.85;;;;;;;24.10;100.00;96458.75;5027081;28;20547;-54
2022/08/23 07:34:30;;;;;;;8.57;5.30;;;;;;;23.62;100.00;96459.59;5022757;28;20091;-53
2022/08/23 07:36:59;;;;;;;8.43;5.35;;;;;;;24.25;100.00;96461.00;5024453;28;20081;-54
2022/08/23 07:39:28;;;;;;;8.82;4.68;;;;;;;24.65;100.00;96469.31;5023717;28;20077;-54
2022/08/23 07:41:58;;;;;;;8.32;5.05;;;;;;;24.22;100.00;96462.28;5028716;28;20081;-58
2022/08/23 07:44:28;;;;;;;7.35;4.70;;;;;;;24.43;100.00;96468.22;5029232;28;20096;-56
2022/08/23 07:46:58;;;;;;;4.90;3.67;;;;;;;24.77;100.00;96461.22;5029619;28;20092;-55
2022/08/23 07:49:29;;;;;;;5.00;3.97;;;;;;;24.78;100.00;96468.28;5028801;28;20089;-56
2022/08/23 07:51:58;;;;;;;6.93;3.63;;;;;;;23.93;100.00;96469.34;5028993;28;20093;-54
2022/08/23 07:54:27;;;;;;;7.85;3.92;;;;;;;25.05;100.00;96479.38;5024607;28;20102;-55
2022/08/23 07:56:56;;;;;;;5.85;3.75;;;;;;;25.19;100.00;96474.59;5026572;28;20093;-57
2022/08/23 07:59:24;;;;;;;6.15;4.10;;;;;;;24.86;100.00;96481.41;5029042;28;20085;-53
2022/08/23 08:01:52;;;;;;;7.22;3.97;;;;;;;25.23;100.00;96473.91;5028351;28;20592;-53
2022/08/23 08:04:21;;;;;;;6.82;3.97;;;;;;;25.43;100.00;96478.91;5029350;28;20089;-58
2022/08/23 08:06:50;;;;;;;3.78;3.30;;;;;;;25.70;85.36;96481.88;5028579;28;20089;-54
2022/08/23 08:09:39;;;;;;;4.80;3.20;;;;;;;25.73;81.51;96477.88;5023584;28;20077;-54
2022/08/23 08:12:09;;;;;;;4.63;3.30;;;;;;;25.71;91.36;96485.41;5028357;28;20080;-50
2022/08/23 08:14:38;;;;;;;5.18;3.38;;;;;;;25.34;87.55;96497.34;5028881;28;20089;-55
2022/08/23 08:17:07;;;;;;;8.30;3.60;;;;;;;25.69;78.68;96492.94;5028625;28;20073;-55
2022/08/23 08:19:35;;;;;;;7.18;3.30;;;;;;;25.78;84.94;96495.00;5028503;28;20049;-53
2022/08/23 08:22:05;;;;;;;4.72;3.30;;;;;;;26.21;82.33;96490.97;5026041;28;20491;-54
2022/08/23 08:24:34;;;;;;;5.10;3.17;;;;;;;25.84;78.45;96492.44;5025074;28;20101;-52
2022/08/23 08:27:02;;;;;;;4.97;3.30;;;;;;;25.37;85.06;96501.47;5028749;28;20077;-56
2022/08/23 08:29:31;;;;;;;4.63;3.00;;;;;;;26.18;68.06;96499.56;5024741;28;20084;-59
2022/08/23 08:31:59;;;;;;;4.75;3.05;;;;;;;26.11;72.47;96498.09;5019092;28;20081;-57
2022/08/23 08:34:27;;;;;;;4.82;3.20;;;;;;;26.15;68.01;96494.66;5028921;28;20471;-57
2022/08/23 08:36:57;;;;;;;5.60;3.10;;;;;;;26.52;69.98;96494.25;5027349;28;20089;-52
2022/08/23 08:39:30;;;;;;;5.78;3.75;;;;;;;26.54;70.49;96484.00;5028534;28;20080;-56
2022/08/23 08:42:07;;;;;;;5.47;3.83;;;;;;;25.81;72.50;96493.75;5028158;28;20085;-54
2022/08/23 08:44:40;;;;;;;5.15;3.47;;;;;;;26.85;65.84;96492.63;5030276;28;20093;-54
2022/08/23 08:47:12;;;;;;;5.68;3.80;;;;;;;26.85;66.62;96498.03;5032761;28;20103;-56
2022/08/23 08:49:44;;;;;;;7.55;3.53;;;;;;;26.71;64.97;96494.84;5031498;28;20088;-56
2022/08/23 08:52:17;;;;;;;5.90;4.13;;;;;;;26.83;65.20;96492.84;5031667;28;20097;-56
2022/08/23 08:54:49;;;;;;;6.63;3.78;;;;;;;26.97;66.08;96499.56;5032247;28;20081;-57
2022/08/23 08:57:24;;;;;;;5.50;3.78;;;;;;;26.77;70.38;96495.72;5028108;28;20081;-57
2022/08/23 09:00:00;;;;;;;6.78;3.80;;;;;;;26.07;75.29;96492.34;5031539;28;20552;-53
2022/08/23 09:02:32;;;;;;;7.22;4.13;;;;;;;26.85;67.38;96488.03;5031842;28;20081;-57
2022/08/23 09:05:04;;;;;;;6.25;3.78;;;;;;;27.23;67.26;96489.13;5025948;28;20080;-54
2022/08/23 09:07:43;;;;;;;5.75;3.85;;;;;;;27.32;62.24;96487.63;5032130;28;20084;-57
2022/08/23 09:10:47;;;;;;;7.28;4.05;;;;;;;26.20;69.45;96483.13;5031732;28;20520;-55
2022/08/23 09:13:34;;;;;;;7.68;3.95;;;;;;;27.42;60.19;96486.94;5027812;28;20085;-57
2022/08/23 09:16:09;;;;;;;6.57;4.03;;;;;;;27.77;63.93;96481.19;5031729;28;20085;-57
2022/08/23 09:18:38;;;;;;;6.10;3.45;;;;;;;27.96;58.33;96472.72;5025989;28;20085;-55
2022/08/23 09:21:08;;;;;;;5.53;3.47;;;;;;;27.68;59.81;96477.25;5031284;28;20084;-54
2022/08/23 09:23:41;;;;;;;5.55;3.55;;;;;;;27.69;61.11;96478.88;5031469;28;20487;-56
2022/08/23 09:26:20;;;;;;;5.53;3.35;;;;;;;27.64;59.57;96478.84;5031248;28;20468;-53
2022/08/23 09:28:50;;;;;;;8.13;3.70;;;;;;;27.84;56.92;96473.69;5031419;28;20088;-56
2022/08/23 09:31:36;;;;;;;4.50;2.30;;;;;;;27.59;52.09;96482.28;5029735;28;20070;-59
2022/08/23 09:34:06;;;;;;;3.97;2.10;;;;;;;27.22;46.50;96484.81;5031502;28;20464;-54
2022/08/23 09:36:36;;;;;;;3.77;2.03;;;;;;;27.58;45.82;96479.84;5031686;28;20077;-53
2022/08/23 09:39:07;;;;;;;6.25;2.28;;;;;;;27.71;47.06;96482.19;5026726;28;20100;-56
2022/08/23 09:41:40;;;;;;;3.50;2.10;;;;;;;27.63;46.36;96478.03;5025394;28;20077;-55
2022/08/23 09:44:12;;;;;;;3.47;2.20;;;;;;;27.64;50.78;96476.94;5031773;28;20088;-56
2022/08/23 09:46:43;;;;;;;4.05;2.20;;;;;;;27.50;50.27;96481.09;5028151;28;20087;-56
2022/08/23 09:49:24;;;;;;;4.50;2.17;;;;;;;27.75;53.34;96471.66;5030884;28;20089;-57
2022/08/23 09:51:54;;;;;;;4.80;2.10;;;;;;;27.62;47.38;96476.38;5031048;28;20080;-55
2022/08/23 09:54:29;;;;;;;5.57;2.25;;;;;;;27.41;47.81;96478.00;5031476;28;20088;-53
2022/08/23 09:57:04;;;;;;;2.78;2.13;;;;;;;27.73;47.32;96477.31;5030479;28;20307;-58
2022/08/23 09:59:39;;;;;;;3.45;2.20;;;;;;;27.85;49.63;96472.59;5028451;28;20088;-56
2022/08/23 10:02:15;;;;;;;3.30;2.30;;;;;;;28.30;51.36;96474.16;5024752;28;20712;-54
2022/08/23 10:04:46;;;;;;;4.95;2.63;;;;;;;27.67;50.98;96467.50;5031128;28;20085;-57
2022/08/23 10:07:24;;;;;;;4.38;2.30;;;;;;;27.33;51.09;96477.63;5030811;28;20081;-55
2022/08/23 10:09:53;;;;;;;3.75;2.15;;;;;;;27.65;48.04;96469.63;5030499;28;20523;-58
2022/08/23 10:12:23;;;;;;;2.85;1.88;;;;;;;27.98;44.95;96468.69;5030339;28;20076;-57
2022/08/23 10:14:53;;;;;;;4.97;2.10;;;;;;;27.46;48.02;96477.28;5029966;28;20076;-57
2022/08/23 10:17:33;;;;;;;2.60;1.85;;;;;;;28.07;49.71;96477.16;5030997;28;20080;-51
2022/08/23 10:20:05;;;;;;;;;;;;;;;28.54;42.38;96474.66;5030862;28;20088;-57
2022/08/23 10:22:43;;;;;;;6.38;2.28;;;;;;;28.73;43.40;96468.84;5023478;28;19952;-57
2022/08/23 10:25:18;;;;;;;5.53;2.60;;;;;;;28.03;49.43;96482.28;5025868;28;20077;-57
2022/08/23 10:30:43;;;;;;;4.07;2.50;;;;;;;28.14;48.77;96469.66;5030431;28;20085;-57
2022/08/23 10:33:17;;;;;;;6.30;3.10;;;;;;;28.44;47.68;96465.63;5030184;28;20084;-58
2022/08/23 10:35:51;;;;;;;3.72;2.65;;;;;;;28.43;48.43;96464.81;5025176;28;20099;-57
2022/08/23 10:38:35;;;;;;;2.85;2.08;;;;;;;28.54;48.55;96466.53;5030492;28;20509;-57
2022/08/23 10:41:15;;;;;;;5.18;2.35;;;;;;;28.73;48.72;96456.06;5030552;28;20077;-55
2022/08/23 10:43:53;;;;;;;3.03;2.10;;;;;;;28.36;46.35;96454.13;5029432;28;20080;-56
2022/08/23 10:46:22;;;;;;;4.10;2.00;;;;;;;28.56;45.05;96453.53;5024377;28;20113;-57
2022/08/23 10:48:54;;;;;;;5.37;2.20;;;;;;;28.54;46.91;96461.09;5024198;28;20083;-53
2022/08/23 10:51:26;;;;;;;3.92;2.10;;;;;;;28.62;42.86;96463.31;5024231;28;20045;-56
2022/08/23 10:54:03;;;;;;;4.47;1.80;;;;;;;28.53;40.98;96459.47;5029779;28;20091;-57
2022/08/23 10:56:32;;;;;;;3.58;2.13;;;;;;;28.31;41.32;96456.78;5024342;28;20096;-60
2022/08/23 10:59:08;;;;;;;4.22;2.00;;;;;;;28.02;42.92;96456.25;5029873;28;20081;-60
2022/08/23 11:01:43;;;;;;;3.80;1.75;;;;;;;28.29;43.63;96447.28;5028818;28;20085;-59
2022/08/23 11:04:17;;;;;;;2.92;2.13;;;;;;;28.46;43.63;96450.72;5030059;28;20099;-59
2022/08/23 11:06:48;;;;;;;3.67;2.10;;;;;;;28.65;42.52;96453.84;5029395;28;20115;-60
2022/08/23 11:10:03;;;;;;;3.03;1.73;;;;;;;29.16;42.77;96445.25;5029709;28;20077;-58
2022/08/23 11:12:34;;;;;;;3.80;1.90;;;;;;;29.12;42.50;96450.41;5028679;28;20104;-56
2022/08/23 11:15:12;;;;;;;2.83;1.90;;;;;;;29.08;40.89;96439.25;5029459;28;20088;-58
2022/08/23 11:17:53;;;;;;;3.58;2.00;;;;;;;29.30;39.89;96443.69;5022395;28;20088;-58
2022/08/23 11:20:59;;;;;;;6.25;2.00;;;;;;;28.67;43.75;96440.84;5023858;28;20085;-57
2022/08/23 11:23:47;;;;;;;3.35;1.88;;;;;;;28.89;43.34;96443.44;5024188;28;20080;-58
2022/08/23 11:27:04;;;;;;;2.67;1.95;;;;;;;29.02;44.54;96447.63;5026364;28;20080;-57
2022/08/23 11:29:39;;;;;;;2.28;1.65;;;;;;;29.05;40.50;96442.50;5027032;28;20549;-52
2022/08/23 11:32:37;;;;;;;2.97;1.65;;;;;;;28.79;40.38;96441.47;5029512;28;20088;-56
2022/08/23 11:35:11;;;;;;;5.57;1.80;;;;;;;29.23;39.79;96437.69;5026170;28;20096;-58
2022/08/23 11:37:55;;;;;;;3.35;1.85;;;;;;;29.78;38.76;96436.31;5029554;28;20088;-58
2022/08/23 11:40:59;;;;;;;3.83;2.05;;;;;;;29.19;41.94;96444.75;5028834;28;20092;-56
2022/08/23 11:43:34;;;;;;;4.80;2.30;;;;;;;29.14;39.94;96445.50;5015816;28;20095;-55
2022/08/23 11:46:30;;;;;;;2.95;2.00;;;;;;;29.51;39.51;96436.47;5029309;28;20131;-58
2022/08/23 11:49:22;;;;;;;3.50;2.08;;;;;;;29.48;40.21;96437.78;5024684;28;20457;-55
2022/08/23 11:51:58;;;;;;;4.05;1.95;;;;;;;30.08;38.90;96437.47;5028330;28;20085;-59
2022/08/23 11:54:38;;;;;;;2.33;1.73;;;;;;;29.85;39.95;96431.44;5029137;28;20085;-54
2022/08/23 11:57:18;;;;;;;3.27;1.93;;;;;;;29.55;37.67;96435.66;5024338;28;20694;-58
2022/08/23 12:00:01;;;;;;;3.20;2.00;;;;;;;29.67;36.85;96431.94;5028622;28;20448;-57